Time;durP1;ratioP1;P1;durP2;ratioP2;P2;SDS_P1;SDS_P2;PMS_P1;PMS_P2;Temp;Humidity;BMP_temperature;BMP_pressure;BME280_temperature;BME280_humidity;BME280_pressure;Samples;Min_cycle;Max_cycle;Signal;HPM_P1;HPM_P2
2022/11/01 00:02:12;;;;;;;;;;;;;;;;;;4985244;28;19917;-78
2022/11/01 00:04:38;;;;;;;;;;;;;;;;;;4985128;28;19988;-78
2022/11/01 00:07:05;;;;;;;;;;;;;;;;;;4987475;28;19913;-76
2022/11/01 00:09:30;;;;;;;;;;;;;;;;;;4987782;28;19972;-76
2022/11/01 00:11:59;;;;;;;;;;;;;;;;;;4972140;28;19913;-78
2022/11/01 00:14:24;;;;;;;;;;;;;;;;;;5003621;28;19917;-77
2022/11/01 00:16:50;;;;;;;;;;;;;;;;;;5021625;28;19936;-77
2022/11/01 00:19:16;;;;;;;;;;;;;;;;;;4988459;28;20013;-77
2022/11/01 00:21:41;;;;;;;;;;;;;;;;;;4990126;28;19913;-76
2022/11/01 00:24:07;;;;;;;;;;;;;;;;;;5007370;28;19952;-77
2022/11/01 00:26:33;;;;;;;;;;;;;;;;;;4991922;28;19914;-77
2022/11/01 00:28:58;;;;;;;;;;;;;;;;;;5007806;28;19925;-79
2022/11/01 00:31:24;;;;;;;;;;;;;;;;;;5006312;28;19920;-78
2022/11/01 00:33:50;;;;;;;;;;;;;;;;;;4990490;28;19921;-76
2022/11/01 00:36:15;;;;;;;;;;;;;;;;;;4989250;28;19964;-77
2022/11/01 00:38:41;;;;;;;;;;;;;;;;;;4991634;28;19967;-77
2022/11/01 00:41:07;;;;;;;;;;;;;;;;;;4991396;28;19924;-77
2022/11/01 00:43:32;;;;;;;;;;;;;;;;;;4992526;28;19921;-77
2022/11/01 00:46:01;;;;;;;;;;;;;;;;;;4975368;28;19921;-76
2022/11/01 00:48:27;;;;;;;;;;;;;;;;;;4991778;28;19921;-78
2022/11/01 00:50:52;;;;;;;;;;;;;;;;;;5009225;28;19913;-78
2022/11/01 00:53:18;;;;;;;;;;;;;;;;;;4994482;28;19917;-77
2022/11/01 00:55:44;;;;;;;;;;;;;;;;;;4992026;28;19913;-78
2022/11/01 00:58:11;;;;;;;;;;;;;;;;;;4993593;28;19921;-78
2022/11/01 01:00:39;;;;;;;;;;;;;;;;;;4975842;28;19917;-77
2022/11/01 01:03:05;;;;;;;;;;;;;;;;;;5007140;28;19914;-78
2022/11/01 01:05:30;;;;;;;;;;;;;;;;;;4992470;28;20332;-77
2022/11/01 01:07:56;;;;;;;;;;;;;;;;;;5026381;28;19914;-78
2022/11/01 01:10:22;;;;;;;;;;;;;;;;;;5011195;28;19921;-78
2022/11/01 01:12:47;;;;;;;;;;;;;;;;;;4994237;28;19921;-76
2022/11/01 01:15:13;;;;;;;;;;;;;;;;;;4992940;28;19921;-77
2022/11/01 01:17:42;;;;;;;;;;;;;;;;;;4993286;28;19913;-77
2022/11/01 01:20:08;;;;;;;;;;;;;;;;;;4976962;28;19922;-77
2022/11/01 01:22:34;;;;;;;;;;;;;;;;;;5010982;28;19960;-77
2022/11/01 01:25:00;;;;;;;;;;;;;;;;;;4995081;28;19959;-78
2022/11/01 01:27:32;;;;;;;;;;;;;;;;;;4995660;28;19918;-77
2022/11/01 01:29:58;;;;;;;;;;;;;;;;;;5011208;28;19945;-78
2022/11/01 01:32:30;;;;;;;;;;;;;;;;;;4978622;28;19918;-76
2022/11/01 01:34:56;;;;;;;;;;;;;;;;;;4994600;28;19971;-78
2022/11/01 01:37:25;;;;;;;;;;;;;;;;;;5011612;28;19920;-78
2022/11/01 01:39:51;;;;;;;;;;;;;;;;;;4980434;28;19917;-77
2022/11/01 01:42:17;;;;;;;;;;;;;;;;;;4982030;28;19920;-78
2022/11/01 01:44:43;;;;;;;;;;;;;;;;;;4998736;28;19963;-76
2022/11/01 01:47:12;;;;;;;;;;;;;;;;;;4999208;28;19897;-78
2022/11/01 01:49:37;;;;;;;;;;;;;;;;;;4999195;28;19920;-77
2022/11/01 01:52:03;;;;;;;;;;;;;;;;;;5014670;28;19914;-76
2022/11/01 01:54:29;;;;;;;;;;;;;;;;;;5013555;28;20332;-77
2022/11/01 01:56:55;;;;;;;;;;;;;;;;;;4998478;28;19913;-78
2022/11/01 01:59:21;;;;;;;;;;;;;;;;;;5032840;28;19913;-76
2022/11/01 02:01:46;;;;;;;;;;;;;;;;;;5031923;28;20353;-78
2022/11/01 02:04:12;;;;;;;;;;;;;;;;;;5014709;28;20393;-79
2022/11/01 02:06:38;;;;;;;;;;;;;;;;;;5015240;28;20293;-77
2022/11/01 02:09:03;;;;;;;;;;;;;;;;;;4999057;28;19913;-77
2022/11/01 02:11:32;;;;;;;;;;;;;;;;;;4998604;28;19913;-78
2022/11/01 02:13:58;;;;;;;;;;;;;;;;;;4997751;28;19941;-76
2022/11/01 02:16:23;;;;;;;;;;;;;;;;;;4995628;28;19914;-79
2022/11/01 02:18:49;;;;;;;;;;;;;;;;;;5010722;28;19913;-76
2022/11/01 02:21:14;;;;;;;;;;;;;;;;;;4997697;28;20017;-77
2022/11/01 02:23:40;;;;;;;;;;;;;;;;;;4995527;28;19963;-77
2022/11/01 02:26:06;;;;;;;;;;;;;;;;;;4996764;28;19955;-78
2022/11/01 02:28:32;;;;;;;;;;;;;;;;;;4997232;28;19949;-76
2022/11/01 02:30:57;;;;;;;;;;;;;;;;;;5011198;28;20157;-78
2022/11/01 02:33:23;;;;;;;;;;;;;;;;;;4994083;28;19925;-79
2022/11/01 02:35:49;;;;;;;;;;;;;;;;;;4994897;28;19924;-78
2022/11/01 02:38:15;;;;;;;;;;;;;;;;;;5011801;28;19936;-76
2022/11/01 02:40:40;;;;;;;;;;;;;;;;;;5009073;28;19918;-78
2022/11/01 02:43:06;;;;;;;;;;;;;;;;;;4992542;28;19987;-77
2022/11/01 02:45:32;;;;;;;;;;;;;;;;;;5026871;28;19914;-78
2022/11/01 02:47:57;;;;;;;;;;;;;;;;;;4991084;28;19913;-77
2022/11/01 02:50:23;;;;;;;;;;;;;;;;;;4991087;28;19910;-77
2022/11/01 02:52:49;;;;;;;;;;;;;;;;;;4988756;28;19913;-76
2022/11/01 02:55:28;;;;;;;;;;;;;;;;;;5024384;28;20025;-77
2022/11/01 02:57:53;;;;;;;;;;;;;;;;;;5005455;28;20365;-75
2022/11/01 03:00:19;;;;;;;;;;;;;;;;;;4983657;28;19920;-76
2022/11/01 03:02:45;;;;;;;;;;;;;;;;;;4983274;28;20035;-76
2022/11/01 03:05:10;;;;;;;;;;;;;;;;;;4998903;28;19913;-77
2022/11/01 03:07:36;;;;;;;;;;;;;;;;;;5000937;28;19914;-76
2022/11/01 03:10:01;;;;;;;;;;;;;;;;;;4984347;28;19920;-76
2022/11/01 03:12:27;;;;;;;;;;;;;;;;;;4985477;28;20166;-76
2022/11/01 03:14:53;;;;;;;;;;;;;;;;;;4968282;28;19918;-76
2022/11/01 03:17:19;;;;;;;;;;;;;;;;;;4987008;28;19948;-75
2022/11/01 03:19:44;;;;;;;;;;;;;;;;;;5003404;28;19917;-76
2022/11/01 03:22:10;;;;;;;;;;;;;;;;;;4970612;28;20346;-77
2022/11/01 03:24:36;;;;;;;;;;;;;;;;;;4986372;28;19913;-77
2022/11/01 03:27:01;;;;;;;;;;;;;;;;;;4985523;28;19913;-78
2022/11/01 03:29:27;;;;;;;;;;;;;;;;;;4986235;28;19920;-78
2022/11/01 03:31:52;;;;;;;;;;;;;;;;;;4972437;28;19975;-77
2022/11/01 03:34:18;;;;;;;;;;;;;;;;;;4979621;23;19926;-82
2022/11/01 03:36:43;;;;;;;;;;;;;;;;;;4967022;29;19938;-82
2022/11/01 03:39:09;;;;;;;;;;;;;;;;;;4966868;28;20345;-82
2022/11/01 03:41:34;;;;;;;;;;;;;;;;;;4965457;29;19918;-81
2022/11/01 03:44:00;;;;;;;;;;;;;;;;;;4963127;28;19914;-82
2022/11/01 03:46:25;;;;;;;;;;;;;;;;;;4947466;29;19942;-81
2022/11/01 03:48:50;;;;;;;;;;;;;;;;;;4964445;29;19914;-81
2022/11/01 03:51:16;;;;;;;;;;;;;;;;;;4964143;29;19918;-82
2022/11/01 03:53:41;;;;;;;;;;;;;;;;;;4964482;28;19911;-81
2022/11/01 03:56:07;;;;;;;;;;;;;;;;;;4966935;29;19921;-82
2022/11/01 03:58:43;;;;;;;;;;;;;;;;;;4968223;29;19915;-82
2022/11/01 04:01:08;;;;;;;;;;;;;;;;;;4969116;29;19918;-82
2022/11/01 04:03:33;;;;;;;;;;;;;;;;;;4966827;28;19921;-82
2022/11/01 04:05:59;;;;;;;;;;;;;;;;;;4967574;29;19920;-82
2022/11/01 04:08:24;;;;;;;;;;;;;;;;;;4969813;29;19918;-83
2022/11/01 04:10:50;;;;;;;;;;;;;;;;;;4936149;29;19915;-83
2022/11/01 04:13:15;;;;;;;;;;;;;;;;;;4966910;28;19924;-83
2022/11/01 04:21:09;;;;;;;;;;;;;;;;;;4972488;29;19957;-82
2022/11/01 04:23:34;;;;;;;;;;;;;;;;;;4967664;28;19914;-81
2022/11/01 04:26:00;;;;;;;;;;;;;;;;;;4967341;29;19914;-82
2022/11/01 04:28:26;;;;;;;;;;;;;;;;;;4963612;29;19999;-81
2022/11/01 04:30:51;;;;;;;;;;;;;;;;;;4944603;29;20255;-81
2022/11/01 04:33:17;;;;;;;;;;;;;;;;;;4929644;29;20267;-82
2022/11/01 04:35:43;;;;;;;;;;;;;;;;;;4948190;29;20370;-81
2022/11/01 04:38:08;;;;;;;;;;;;;;;;;;4947166;29;19915;-81
2022/11/01 04:40:34;;;;;;;;;;;;;;;;;;4944167;29;20355;-82
2022/11/01 04:43:00;;;;;;;;;;;;;;;;;;4953906;28;19914;-83
2022/11/01 04:45:25;;;;;;;;;;;;;;;;;;4954746;29;19918;-86
2022/11/01 04:47:51;;;;;;;;;;;;;;;;;;4953590;29;20005;-82
2022/11/01 04:50:16;;;;;;;;;;;;;;;;;;4954773;29;20299;-87
2022/11/01 04:52:41;;;;;;;;;;;;;;;;;;4954296;28;19926;-84
2022/11/01 04:55:07;;;;;;;;;;;;;;;;;;4954553;29;20005;-85
2022/11/01 04:57:33;;;;;;;;;;;;;;;;;;4937462;29;19915;-83
2022/11/01 04:59:58;;;;;;;;;;;;;;;;;;4953211;29;19918;-85
2022/11/01 05:02:23;;;;;;;;;;;;;;;;;;4953056;28;19921;-87
2022/11/01 05:04:49;;;;;;;;;;;;;;;;;;4953116;29;19914;-85
2022/11/01 05:07:14;;;;;;;;;;;;;;;;;;4953062;29;19914;-85
2022/11/01 05:09:40;;;;;;;;;;;;;;;;;;4958002;29;19915;-82
2022/11/01 05:12:05;;;;;;;;;;;;;;;;;;4945792;29;19941;-81
2022/11/01 05:14:31;;;;;;;;;;;;;;;;;;4958579;28;20009;-83
2022/11/01 05:16:56;;;;;;;;;;;;;;;;;;4943286;29;19922;-83
2022/11/01 05:19:21;;;;;;;;;;;;;;;;;;4959362;29;19914;-83
2022/11/01 05:21:47;;;;;;;;;;;;;;;;;;4957993;29;19958;-85
2022/11/01 05:24:12;;;;;;;;;;;;;;;;;;4957995;28;19914;-85
2022/11/01 05:26:37;;;;;;;;;;;;;;;;;;4961039;29;19977;-85
2022/11/01 05:29:03;;;;;;;;;;;;;;;;;;4948896;29;20017;-84
2022/11/01 05:31:28;;;;;;;;;;;;;;;;;;4934516;29;19961;-80
2022/11/01 05:33:54;;;;;;;;;;;;;;;;;;4970937;28;19926;-82
2022/11/01 05:36:20;;;;;;;;;;;;;;;;;;4939926;29;19915;-82
2022/11/01 05:38:46;;;;;;;;;;;;;;;;;;4970977;29;19915;-82
2022/11/01 05:41:12;;;;;;;;;;;;;;;;;;4963116;29;19989;-86
2022/11/01 05:43:37;;;;;;;;;;;;;;;;;;4963911;28;20314;-83
2022/11/01 05:46:03;;;;;;;;;;;;;;;;;;4965612;29;19915;-83
2022/11/01 05:48:28;;;;;;;;;;;;;;;;;;4966407;29;19918;-82
2022/11/01 05:50:54;;;;;;;;;;;;;;;;;;4966262;29;20388;-84
2022/11/01 05:53:19;;;;;;;;;;;;;;;;;;4918630;29;19914;-82
2022/11/01 05:55:45;;;;;;;;;;;;;;;;;;4929832;29;19993;-86
2022/11/01 05:58:10;;;;;;;;;;;;;;;;;;4950702;29;19914;-82
2022/11/01 06:00:36;;;;;;;;;;;;;;;;;;4971962;29;19919;-82
2022/11/01 06:03:02;;;;;;;;;;;;;;;;;;4955184;29;19915;-83
2022/11/01 06:05:27;;;;;;;;;;;;;;;;;;4932060;29;20357;-86
2022/11/01 06:07:53;;;;;;;;;;;;;;;;;;4926331;29;20453;-83
2022/11/01 06:10:18;;;;;;;;;;;;;;;;;;4957821;29;19926;-86
2022/11/01 06:12:43;;;;;;;;;;;;;;;;;;4956092;28;20275;-87
2022/11/01 06:15:09;;;;;;;;;;;;;;;;;;4956947;29;20290;-85
2022/11/01 06:17:34;;;;;;;;;;;;;;;;;;4969150;29;19948;-82
2022/11/01 06:20:00;;;;;;;;;;;;;;;;;;4977473;29;19926;-84
2022/11/01 06:22:26;;;;;;;;;;;;;;;;;;4976560;28;19926;-83
2022/11/01 06:24:54;;;;;;;;;;;;;;;;;;4956813;29;19914;-82
2022/11/01 06:27:20;;;;;;;;;;;;;;;;;;4967909;28;19986;-82
2022/11/01 06:29:45;;;;;;;;;;;;;;;;;;4957810;29;19954;-84
2022/11/01 06:32:10;;;;;;;;;;;;;;;;;;4957404;28;19915;-87
2022/11/01 06:34:36;;;;;;;;;;;;;;;;;;4956984;29;19993;-83
2022/11/01 06:37:01;;;;;;;;;;;;;;;;;;4962542;29;19939;-82
2022/11/01 06:39:27;;;;;;;;;;;;;;;;;;4963528;29;20002;-81
2022/11/01 06:41:52;;;;;;;;;;;;;;;;;;4967616;29;19946;-81
2022/11/01 06:44:17;;;;;;;;;;;;;;;;;;4963359;28;19922;-81
2022/11/01 06:46:43;;;;;;;;;;;;;;;;;;4930577;29;19914;-81
2022/11/01 06:49:08;;;;;;;;;;;;;;;;;;4967072;29;19914;-82
2022/11/01 06:51:34;;;;;;;;;;;;;;;;;;4967642;29;20017;-82
2022/11/01 06:54:00;;;;;;;;;;;;;;;;;;4968576;28;19977;-82
2022/11/01 06:56:25;;;;;;;;;;;;;;;;;;4968019;29;19918;-81
2022/11/01 06:58:51;;;;;;;;;;;;;;;;;;4951702;29;19921;-82
2022/11/01 07:01:20;;;;;;;;;;;;;;;;;;4968001;29;19919;-81
2022/11/01 07:03:46;;;;;;;;;;;;;;;;;;4934983;29;19925;-82
2022/11/01 07:06:11;;;;;;;;;;;;;;;;;;4966361;29;19910;-81
2022/11/01 07:08:37;;;;;;;;;;;;;;;;;;4966320;29;19921;-80
2022/11/01 07:11:02;;;;;;;;;;;;;;;;;;4969286;29;19938;-83
2022/11/01 07:13:32;;;;;;;;;;;;;;;;;;4967015;28;19915;-82
2022/11/01 07:15:58;;;;;;;;;;;;;;;;;;4969011;29;19971;-80
2022/11/01 07:18:23;;;;;;;;;;;;;;;;;;4918649;29;19918;-81
2022/11/01 07:20:49;;;;;;;;;;;;;;;;;;4948301;29;19993;-82
2022/11/01 07:23:14;;;;;;;;;;;;;;;;;;4965780;28;19914;-82
2022/11/01 07:25:40;;;;;;;;;;;;;;;;;;4947830;29;19914;-83
2022/11/01 07:28:05;;;;;;;;;;;;;;;;;;4960382;29;19918;-81
2022/11/01 07:30:30;;;;;;;;;;;;;;;;;;4942756;29;19994;-82
2022/11/01 07:32:56;;;;;;;;;;;;;;;;;;4960911;28;19969;-84
2022/11/01 07:35:21;;;;;;;;;;;;;;;;;;4942655;29;19969;-84
2022/11/01 07:37:47;;;;;;;;;;;;;;;;;;4946532;29;20206;-83
2022/11/01 07:40:12;;;;;;;;;;;;;;;;;;4958072;29;20457;-84
2022/11/01 07:42:38;;;;;;;;;;;;;;;;;;4954839;28;19953;-88
2022/11/01 07:45:03;;;;;;;;;;;;;;;;;;4954152;29;19915;-85
2022/11/01 07:47:29;;;;;;;;;;;;;;;;;;4955705;29;20271;-89
2022/11/01 07:49:54;;;;;;;;;;;;;;;;;;4954124;29;20017;-86
2022/11/01 07:52:20;;;;;;;;;;;;;;;;;;4955244;28;19962;-86
2022/11/01 07:54:45;;;;;;;;;;;;;;;;;;4954275;29;20390;-85
2022/11/01 07:57:11;;;;;;;;;;;;;;;;;;4955437;29;19914;-88
2022/11/01 07:59:36;;;;;;;;;;;;;;;;;;4954138;29;19958;-82
2022/11/01 08:02:02;;;;;;;;;;;;;;;;;;4938535;29;19978;-88
2022/11/01 08:04:27;;;;;;;;;;;;;;;;;;4955096;28;19914;-82
2022/11/01 08:06:56;;;;;;;;;;;;;;;;;;4955257;29;19925;-82
2022/11/01 08:09:21;;;;;;;;;;;;;;;;;;4927592;29;19997;-81
2022/11/01 08:11:47;;;;;;;;;;;;;;;;;;4961379;29;19914;-81
2022/11/01 08:14:12;;;;;;;;;;;;;;;;;;4959986;28;19915;-81
2022/11/01 08:16:37;;;;;;;;;;;;;;;;;;4958675;29;20453;-82
2022/11/01 08:19:03;;;;;;;;;;;;;;;;;;4929232;29;19950;-82
2022/11/01 08:21:28;;;;;;;;;;;;;;;;;;4963024;29;20386;-85
2022/11/01 08:23:54;;;;;;;;;;;;;;;;;;4955511;28;20394;-83
2022/11/01 08:26:19;;;;;;;;;;;;;;;;;;4954999;29;20397;-82
2022/11/01 08:28:44;;;;;;;;;;;;;;;;;;4961467;29;19918;-85
2022/11/01 08:31:10;;;;;;;;;;;;;;;;;;4946805;29;19936;-86
2022/11/01 08:33:35;;;;;;;;;;;;;;;;;;4955165;28;20047;-87
2022/11/01 08:36:01;;;;;;;;;;;;;;;;;;4954027;29;19915;-84
2022/11/01 08:38:27;;;;;;;;;;;;;;;;;;4955035;28;19914;-83
2022/11/01 08:40:52;;;;;;;;;;;;;;;;;;4954964;29;20421;-83
2022/11/01 08:43:17;;;;;;;;;;;;;;;;;;4954965;28;19915;-82
2022/11/01 08:45:43;;;;;;;;;;;;;;;;;;4955642;29;19915;-83
2022/11/01 08:48:08;;;;;;;;;;;;;;;;;;4954965;29;19919;-83
2022/11/01 08:50:33;;;;;;;;;;;;;;;;;;4953494;28;20508;-83
2022/11/01 08:52:59;;;;;;;;;;;;;;;;;;4953027;28;19915;-85
2022/11/01 08:55:25;;;;;;;;;;;;;;;;;;4955726;29;20301;-82
2022/11/01 08:57:50;;;;;;;;;;;;;;;;;;4954841;29;20001;-84
2022/11/01 09:00:15;;;;;;;;;;;;;;;;;;4954172;29;19978;-88
2022/11/01 09:02:41;;;;;;;;;;;;;;;;;;4954369;28;20343;-88
2022/11/01 09:05:07;;;;;;;;;;;;;;;;;;4953233;29;19915;-87
2022/11/01 09:07:33;;;;;;;;;;;;;;;;;;4953133;29;19914;-88
2022/11/01 09:09:58;;;;;;;;;;;;;;;;;;4921336;29;19937;-86
2022/11/01 09:12:23;;;;;;;;;;;;;;;;;;4954147;28;19914;-85
2022/11/01 09:14:49;;;;;;;;;;;;;;;;;;4921262;29;19946;-86
2022/11/01 09:17:14;;;;;;;;;;;;;;;;;;4937184;29;19967;-86
2022/11/01 09:19:40;;;;;;;;;;;;;;;;;;4954683;29;19915;-85
2022/11/01 09:22:05;;;;;;;;;;;;;;;;;;4953173;29;20314;-86
2022/11/01 09:24:30;;;;;;;;;;;;;;;;;;4954190;28;19914;-86
2022/11/01 09:26:56;;;;;;;;;;;;;;;;;;4956429;29;19998;-84
2022/11/01 09:29:21;;;;;;;;;;;;;;;;;;4965977;29;19945;-85
2022/11/01 09:31:46;;;;;;;;;;;;;;;;;;4960710;29;19983;-84
2022/11/01 09:34:12;;;;;;;;;;;;;;;;;;4980993;23;20389;-78
2022/11/01 09:36:38;;;;;;;;;;;;;;;;;;4958886;28;20107;-78
2022/11/01 09:39:03;;;;;;;;;;;;;;;;;;4975376;28;19937;-79
2022/11/01 09:41:29;;;;;;;;;;;;;;;;;;4926310;28;20024;-78
2022/11/01 09:43:54;;;;;;;;;;;;;;;;;;4930927;29;20370;-78
2022/11/01 09:46:20;;;;;;;;;;;;;;;;;;4939573;29;19915;-78
2022/11/01 09:48:45;;;;;;;;;;;;;;;;;;4955701;28;20378;-77
2022/11/01 09:51:13;;;;;;;;;;;;;;;;;;4956185;29;19914;-79
2022/11/01 09:53:38;;;;;;;;;;;;;;;;;;4939185;28;19914;-78
2022/11/01 09:56:08;;;;;;;;;;;;;;;;;;4940867;29;20404;-78
2022/11/01 09:58:34;;;;;;;;;;;;;;;;;;4939180;29;19958;-78
2022/11/01 10:01:02;;;;;;;;;;;;;;;;;;4957314;28;19925;-79
2022/11/01 10:03:36;;;;;;;;;;;;;;;;;;4944217;29;19920;-77
2022/11/01 10:06:01;;;;;;;;;;;;;;;;;;4945061;29;20009;-77
2022/11/01 10:08:27;;;;;;;;;;;;;;;;;;4961088;29;19915;-77
2022/11/01 10:10:53;;;;;;;;;;;;;;;;;;4945225;29;19950;-77
2022/11/01 10:13:18;;;;;;;;;;;;;;;;;;4943885;29;19918;-76
2022/11/01 10:15:44;;;;;;;;;;;;;;;;;;4960952;29;20296;-77
2022/11/01 10:18:09;;;;;;;;;;;;;;;;;;4946816;29;20382;-77
2022/11/01 10:20:35;;;;;;;;;;;;;;;;;;4961948;28;19925;-76
2022/11/01 10:23:03;;;;;;;;;;;;;;;;;;4960861;28;19921;-78
2022/11/01 10:25:34;;;;;;;;;;;;;;;;;;4932261;29;19950;-78
2022/11/01 10:28:00;;;;;;;;;;;;;;;;;;4964473;28;19942;-76
2022/11/01 10:30:26;;;;;;;;;;;;;;;;;;4948739;29;19985;-78
2022/11/01 10:32:56;;;;;;;;;;;;;;;;;;4963968;28;19993;-79
2022/11/01 10:35:22;;;;;;;;;;;;;;;;;;4963977;29;20001;-79
2022/11/01 10:37:48;;;;;;;;;;;;;;;;;;4950882;29;19950;-77
2022/11/01 10:40:13;;;;;;;;;;;;;;;;;;4965657;28;19961;-77
2022/11/01 10:42:39;;;;;;;;;;;;;;;;;;4932828;28;19961;-78
2022/11/01 10:45:06;;;;;;;;;;;;;;;;;;4946388;29;19914;-78
2022/11/01 10:47:31;;;;;;;;;;;;;;;;;;4932983;29;19914;-79
2022/11/01 10:49:58;;;;;;;;;;;;;;;;;;4944764;29;19921;-78
2022/11/01 10:52:23;;;;;;;;;;;;;;;;;;4945248;29;20433;-76
2022/11/01 10:54:49;;;;;;;;;;;;;;;;;;4945113;29;19958;-76
2022/11/01 10:57:15;;;;;;;;;;;;;;;;;;4960710;29;19920;-77
2022/11/01 10:59:41;;;;;;;;;;;;;;;;;;4941806;29;20281;-78
2022/11/01 11:02:07;;;;;;;;;;;;;;;;;;4943028;29;19914;-78
2022/11/01 11:04:36;;;;;;;;;;;;;;;;;;4926167;29;19914;-77
2022/11/01 11:07:02;;;;;;;;;;;;;;;;;;4957693;28;19974;-77
2022/11/01 11:09:27;;;;;;;;;;;;;;;;;;4941841;29;20358;-78
2022/11/01 11:11:59;;;;;;;;;;;;;;;;;;4941161;28;19999;-77
2022/11/01 11:14:27;;;;;;;;;;;;;;;;;;4957499;28;20013;-79
2022/11/01 11:16:55;;;;;;;;;;;;;;;;;;4957593;29;19921;-76
2022/11/01 11:19:24;;;;;;;;;;;;;;;;;;4925791;29;20371;-78
2022/11/01 11:21:50;;;;;;;;;;;;;;;;;;4958564;29;19925;-76
2022/11/01 11:24:18;;;;;;;;;;;;;;;;;;4942745;29;19997;-78
2022/11/01 11:26:44;;;;;;;;;;;;;;;;;;4959335;28;19921;-78
2022/11/01 11:29:12;;;;;;;;;;;;;;;;;;4942753;29;19915;-77
2022/11/01 11:31:38;;;;;;;;;;;;;;;;;;4943762;29;19921;-77
2022/11/01 11:34:04;;;;;;;;;;;;;;;;;;4945352;29;20346;-78
2022/11/01 11:36:32;;;;;;;;;;;;;;;;;;4960828;28;19918;-77
2022/11/01 11:38:58;;;;;;;;;;;;;;;;;;4944509;29;19965;-77
2022/11/01 11:41:23;;;;;;;;;;;;;;;;;;4943156;29;20267;-77
2022/11/01 11:43:49;;;;;;;;;;;;;;;;;;4928414;29;19918;-77
2022/11/01 11:46:19;;;;;;;;;;;;;;;;;;4930217;29;19962;-77
2022/11/01 11:48:48;;;;;;;;;;;;;;;;;;4964543;29;19915;-77
2022/11/01 11:51:13;;;;;;;;;;;;;;;;;;4931428;29;19915;-77
2022/11/01 11:53:39;;;;;;;;;;;;;;;;;;4963010;29;19915;-77
2022/11/01 11:56:06;;;;;;;;;;;;;;;;;;4967115;28;20041;-78
2022/11/01 11:58:35;;;;;;;;;;;;;;;;;;4950428;29;19914;-76
2022/11/01 12:01:00;;;;;;;;;;;;;;;;;;4949549;29;19960;-77
2022/11/01 12:03:26;;;;;;;;;;;;;;;;;;4967893;28;19914;-78
2022/11/01 12:05:52;;;;;;;;;;;;;;;;;;4969599;29;19925;-77
2022/11/01 12:08:17;;;;;;;;;;;;;;;;;;4952571;29;19922;-77
2022/11/01 12:10:43;;;;;;;;;;;;;;;;;;4952111;29;20005;-77
2022/11/01 12:13:08;;;;;;;;;;;;;;;;;;4936324;29;19915;-77
2022/11/01 12:15:34;;;;;;;;;;;;;;;;;;4950066;29;19922;-78
2022/11/01 12:18:00;;;;;;;;;;;;;;;;;;4933704;29;20165;-77
2022/11/01 12:20:25;;;;;;;;;;;;;;;;;;4964725;28;19980;-77
2022/11/01 12:22:51;;;;;;;;;;;;;;;;;;4950078;28;19915;-77
2022/11/01 12:25:17;;;;;;;;;;;;;;;;;;4945647;29;19918;-75
2022/11/01 12:27:43;;;;;;;;;;;;;;;;;;4959989;28;19917;-77
2022/11/01 12:30:09;;;;;;;;;;;;;;;;;;4957502;28;19915;-76
2022/11/01 12:32:37;;;;;;;;;;;;;;;;;;4958578;28;20346;-78
2022/11/01 12:35:03;;;;;;;;;;;;;;;;;;4957308;28;19919;-78
2022/11/01 12:37:29;;;;;;;;;;;;;;;;;;4959194;29;19918;-78
2022/11/01 12:39:58;;;;;;;;;;;;;;;;;;4940279;29;19914;-78
2022/11/01 12:42:24;;;;;;;;;;;;;;;;;;4941090;29;20275;-77
2022/11/01 12:44:49;;;;;;;;;;;;;;;;;;4958441;28;19918;-77
2022/11/01 12:47:14;;;;;;;;;;;;;;;;;;4958306;29;20185;-76
2022/11/01 12:49:40;;;;;;;;;;;;;;;;;;4926335;29;19915;-78
2022/11/01 12:52:06;;;;;;;;;;;;;;;;;;4942303;29;19914;-77
2022/11/01 12:54:31;;;;;;;;;;;;;;;;;;4942814;29;19914;-77
2022/11/01 12:56:57;;;;;;;;;;;;;;;;;;4940558;29;20008;-77
2022/11/01 12:59:23;;;;;;;;;;;;;;;;;;4957855;29;19915;-77
2022/11/01 13:01:48;;;;;;;;;;;;;;;;;;4940903;29;19957;-78
2022/11/01 13:04:14;;;;;;;;;;;;;;;;;;4940223;29;19915;-76
2022/11/01 13:06:40;;;;;;;;;;;;;;;;;;4939583;29;19921;-76
2022/11/01 13:09:05;;;;;;;;;;;;;;;;;;4923200;29;19910;-76
2022/11/01 13:11:31;;;;;;;;;;;;;;;;;;4939568;29;19964;-77
2022/11/01 13:13:56;;;;;;;;;;;;;;;;;;4924088;29;20381;-78
2022/11/01 13:16:21;;;;;;;;;;;;;;;;;;4939335;29;20321;-78
2022/11/01 13:18:47;;;;;;;;;;;;;;;;;;4939880;29;19915;-78
2022/11/01 13:21:18;;;;;;;;;;;;;;;;;;4940739;29;20001;-77
2022/11/01 13:23:44;;;;;;;;;;;;;;;;;;4956585;28;20397;-76
2022/11/01 13:26:09;;;;;;;;;;;;;;;;;;4958732;28;19918;-76
2022/11/01 13:28:35;;;;;;;;;;;;;;;;;;4960526;29;19914;-76
2022/11/01 13:31:01;;;;;;;;;;;;;;;;;;4944135;29;19977;-76
2022/11/01 13:33:26;;;;;;;;;;;;;;;;;;4942505;29;20001;-78
2022/11/01 13:35:51;;;;;;;;;;;;;;;;;;4957910;28;19960;-78
2022/11/01 13:38:17;;;;;;;;;;;;;;;;;;4945219;29;19914;-77
2022/11/01 13:40:46;;;;;;;;;;;;;;;;;;4929499;29;20013;-77
2022/11/01 13:43:14;;;;;;;;;;;;;;;;;;4946586;29;19911;-77
2022/11/01 13:45:39;;;;;;;;;;;;;;;;;;4945737;29;19914;-78
2022/11/01 13:48:05;;;;;;;;;;;;;;;;;;4946068;29;20005;-77
2022/11/01 13:50:30;;;;;;;;;;;;;;;;;;4964874;28;19922;-77
2022/11/01 13:53:02;;;;;;;;;;;;;;;;;;4949332;29;20009;-78
2022/11/01 13:55:28;;;;;;;;;;;;;;;;;;4937654;29;19918;-77
2022/11/01 13:57:56;;;;;;;;;;;;;;;;;;4955004;29;19910;-76
2022/11/01 14:00:22;;;;;;;;;;;;;;;;;;4937768;29;19925;-77
2022/11/01 14:02:48;;;;;;;;;;;;;;;;;;4968656;28;19915;-76
2022/11/01 14:05:14;;;;;;;;;;;;;;;;;;4970809;29;20098;-78
2022/11/01 14:07:40;;;;;;;;;;;;;;;;;;4935951;29;19977;-78
2022/11/01 14:10:06;;;;;;;;;;;;;;;;;;4966915;28;19916;-77
2022/11/01 14:12:31;;;;;;;;;;;;;;;;;;4935685;28;19920;-77
2022/11/01 14:14:57;;;;;;;;;;;;;;;;;;4950858;29;20421;-78
2022/11/01 14:17:22;;;;;;;;;;;;;;;;;;4948798;29;20361;-77
2022/11/01 14:19:48;;;;;;;;;;;;;;;;;;4934725;29;20282;-76
2022/11/01 14:22:14;;;;;;;;;;;;;;;;;;4947568;29;19926;-78
2022/11/01 14:24:39;;;;;;;;;;;;;;;;;;4934334;29;19921;-77
2022/11/01 14:27:07;;;;;;;;;;;;;;;;;;4963987;28;20286;-77
2022/11/01 14:29:35;;;;;;;;;;;;;;;;;;4947044;29;19914;-77
2022/11/01 14:32:01;;;;;;;;;;;;;;;;;;4962157;28;19914;-77
2022/11/01 14:34:27;;;;;;;;;;;;;;;;;;4942616;29;19918;-77
2022/11/01 14:36:52;;;;;;;;;;;;;;;;;;4955915;28;20290;-77
2022/11/01 14:39:18;;;;;;;;;;;;;;;;;;4957146;29;20005;-75
2022/11/01 14:41:43;;;;;;;;;;;;;;;;;;4955341;29;19970;-77
2022/11/01 14:44:10;;;;;;;;;;;;;;;;;;4956360;28;19918;-77
2022/11/01 14:46:36;;;;;;;;;;;;;;;;;;4955242;28;20001;-76
2022/11/01 14:49:02;;;;;;;;;;;;;;;;;;4939487;29;20002;-77
2022/11/01 14:51:27;;;;;;;;;;;;;;;;;;4939109;29;19974;-77
2022/11/01 14:53:53;;;;;;;;;;;;;;;;;;4924616;29;19973;-77
2022/11/01 14:56:18;;;;;;;;;;;;;;;;;;4942344;29;20306;-76
2022/11/01 14:58:44;;;;;;;;;;;;;;;;;;4945052;29;19921;-77
2022/11/01 15:01:10;;;;;;;;;;;;;;;;;;4950427;29;19922;-77
2022/11/01 15:03:35;;;;;;;;;;;;;;;;;;4946993;29;19914;-77
2022/11/01 15:06:01;;;;;;;;;;;;;;;;;;4946823;29;19914;-77
2022/11/01 15:08:27;;;;;;;;;;;;;;;;;;4945858;29;19969;-77
2022/11/01 15:10:52;;;;;;;;;;;;;;;;;;4929638;29;19989;-78
2022/11/01 15:13:18;;;;;;;;;;;;;;;;;;4962788;28;19915;-77
2022/11/01 15:15:44;;;;;;;;;;;;;;;;;;4930370;29;19914;-77
2022/11/01 15:18:09;;;;;;;;;;;;;;;;;;4963713;28;19925;-78
2022/11/01 15:20:35;;;;;;;;;;;;;;;;;;4950386;29;20390;-78
2022/11/01 15:23:00;;;;;;;;;;;;;;;;;;4948300;29;19915;-76
2022/11/01 15:25:26;;;;;;;;;;;;;;;;;;4967209;29;20248;-78
2022/11/01 15:27:52;;;;;;;;;;;;;;;;;;4953218;29;19914;-78
2022/11/01 15:30:18;;;;;;;;;;;;;;;;;;4951555;29;19946;-78
2022/11/01 15:32:44;;;;;;;;;;;;;;;;;;4960097;28;19915;-78
2022/11/01 15:35:09;;;;;;;;;;;;;;;;;;4985425;23;19933;-83
2022/11/01 15:37:35;;;;;;;;;;;;;;;;;;4942220;28;19914;-83
2022/11/01 15:40:00;;;;;;;;;;;;;;;;;;4941887;28;19914;-83
2022/11/01 15:42:34;;;;;;;;;;;;;;;;;;4941889;28;19914;-82
2022/11/01 15:45:00;;;;;;;;;;;;;;;;;;4942293;28;19921;-83
2022/11/01 15:47:25;;;;;;;;;;;;;;;;;;4925844;28;19918;-83
2022/11/01 15:49:52;;;;;;;;;;;;;;;;;;4974623;28;19922;-83
2022/11/01 15:52:18;;;;;;;;;;;;;;;;;;4957439;28;19932;-83
2022/11/01 15:54:49;;;;;;;;;;;;;;;;;;4941946;28;20016;-84
2022/11/01 15:57:15;;;;;;;;;;;;;;;;;;4941874;28;19914;-83
2022/11/01 15:59:40;;;;;;;;;;;;;;;;;;4957120;28;20440;-82
2022/11/01 16:02:06;;;;;;;;;;;;;;;;;;4957401;28;20013;-83
2022/11/01 16:04:32;;;;;;;;;;;;;;;;;;4957916;28;19914;-83
2022/11/01 16:06:58;;;;;;;;;;;;;;;;;;4957879;28;19914;-81
2022/11/01 16:09:23;;;;;;;;;;;;;;;;;;4926029;28;19914;-82
2022/11/01 16:11:49;;;;;;;;;;;;;;;;;;4957895;28;19914;-83
2022/11/01 16:14:14;;;;;;;;;;;;;;;;;;4975142;28;19921;-83
2022/11/01 16:16:40;;;;;;;;;;;;;;;;;;4925876;28;19973;-84
2022/11/01 16:19:05;;;;;;;;;;;;;;;;;;4942010;28;19914;-83
2022/11/01 16:21:30;;;;;;;;;;;;;;;;;;4957854;28;19925;-84
2022/11/01 16:23:56;;;;;;;;;;;;;;;;;;4957594;28;19921;-83
2022/11/01 16:26:21;;;;;;;;;;;;;;;;;;4976211;28;19953;-83
2022/11/01 16:28:47;;;;;;;;;;;;;;;;;;4963848;28;20186;-83
2022/11/01 16:31:12;;;;;;;;;;;;;;;;;;4960698;28;20017;-83
2022/11/01 16:33:37;;;;;;;;;;;;;;;;;;4957669;28;19914;-83
2022/11/01 16:36:03;;;;;;;;;;;;;;;;;;4959069;28;19914;-84
2022/11/01 16:38:28;;;;;;;;;;;;;;;;;;4956613;28;19977;-84
2022/11/01 16:41:09;;;;;;;;;;;;;;;;;;4974277;28;19941;-84
2022/11/01 16:43:34;;;;;;;;;;;;;;;;;;4956618;28;20374;-85